Darstellungsparameter: Aktuell verwendete Einstellungen:
Skalierung der Graphiken ... ?
xyx+y,   Skalierungsfaktor:      Skalierung: Modus: x, Faktor: 1
Darstellungszeitraum ... ?
Vom - - bis: - -   Zeitraum: 13.03.2021 - 13.03.2021
Min/Max/Avg-Anzeige ... ?
Zeige MMA aktuell
Zeige MMA Monat
Zeige MMA alles
Zeige --A aktuell
Zeige --A Monat
Zeige --A alles
Keine MMA-Anzeige
MMA:
Average (ber die Originaldaten)
MMA-Basis: 13.03.2021 - 13.03.2021
Quicknavigation für Darstellung... ?
Tage:      1T, 2T, 3T, 5T -1T -2T -3T -5T +1T +2T +3T +5T
Wochen: 1W, 2W, 3W -1W -2W -3W +1W +2W +3W
Monate: 1M, 3M, 6M -1M -3M -6M +1M +3M +6M
Jahre:    1J, 3J, 5J, 10J -1J -3J -5J -10J +1J +3J +5J +10J
Nutze für die Darstellung ... ?
Originaldaten oder Mittelwerte auf ...
Stundenbasis Tagesbasis Wochenbasis
Monatsbasis Jahresbasis      Datenbasis: Original-Daten
Darstellen als:
Statistik (Auto) Statistik J:M      Darstellung:
Zur Graphik,    zurück zur Übersicht aller Sensoren.
 
Tabellarische Datenbersicht: ?
 
Sensor: Nr:Datum:Temp:Abs-Feuchte:Windchill:Wind:
Aussen-T/F 1 13-03-2021 00:00:00 6.6 C 6.42 g/m*3 3.36 C 17.7 km/h
2 13-03-2021 00:05:00 6.6 C 6.42 g/m*3 3.57 C 16.1 km/h
3 13-03-2021 00:10:00 6.7 C 6.46 g/m*3 3.69 C 16.1 km/h
4 13-03-2021 00:15:00 6.7 C 6.46 g/m*3 3.48 C 17.7 km/h
5 13-03-2021 00:20:00 6.8 C 6.5 g/m*3 3.61 C 17.7 km/h
6 13-03-2021 00:25:00 6.8 C 6.42 g/m*3 3.24 C 20.9 km/h
7 13-03-2021 00:30:00 6.8 C 6.42 g/m*3 3.24 C 20.9 km/h
8 13-03-2021 00:35:00 6.9 C 6.47 g/m*3 4.16 C 14.5 km/h
9 13-03-2021 00:40:00 6.9 C 6.47 g/m*3 3.94 C 16.1 km/h
10 13-03-2021 00:45:00 6.9 C 6.47 g/m*3 4.16 C 14.5 km/h
11 13-03-2021 00:50:00 6.9 C 6.47 g/m*3 4.16 C 14.5 km/h
12 13-03-2021 00:55:00 6.9 C 6.47 g/m*3 3.94 C 16.1 km/h
13 13-03-2021 01:00:00 6.9 C 6.47 g/m*3 4.68 C 11.3 km/h
14 13-03-2021 01:05:00 6.9 C 6.47 g/m*3 4.41 C 12.9 km/h
15 13-03-2021 01:10:00 6.9 C 6.47 g/m*3 3.37 C 20.9 km/h
16 13-03-2021 01:15:00 6.9 C 6.47 g/m*3 4.16 C 14.5 km/h
17 13-03-2021 01:20:00 6.9 C 6.47 g/m*3 3.2 C 22.5 km/h
18 13-03-2021 01:25:00 7.1 C 6.63 g/m*3 4.92 C 11.3 km/h
19 13-03-2021 01:30:00 7.1 C 6.63 g/m*3 4.92 C 11.3 km/h
20 13-03-2021 01:35:00 7 C 6.66 g/m*3 4.8 C 11.3 km/h
21 13-03-2021 01:40:00 6.9 C 6.62 g/m*3 3.73 C 17.7 km/h
22 13-03-2021 01:45:00 6.9 C 6.62 g/m*3 3.94 C 16.1 km/h
23 13-03-2021 01:50:00 7 C 6.66 g/m*3 4.06 C 16.1 km/h
24 13-03-2021 01:55:00 7 C 6.66 g/m*3 4.29 C 14.5 km/h
25 13-03-2021 02:00:00 7 C 6.66 g/m*3 3.67 C 19.3 km/h
Sensor: Nr:Datum:Temp:Abs-Feuchte:Windchill:Wind:
Aussen-T/F 26 13-03-2021 02:05:00 7 C 6.66 g/m*3 4.06 C 16.1 km/h
27 13-03-2021 02:10:00 7.1 C 6.63 g/m*3 4.19 C 16.1 km/h
28 13-03-2021 02:15:00 7.1 C 6.63 g/m*3 4.92 C 11.3 km/h
29 13-03-2021 02:20:00 7.2 C 6.67 g/m*3 4.53 C 14.5 km/h
30 13-03-2021 02:25:00 7.2 C 6.67 g/m*3 5.04 C 11.3 km/h
31 13-03-2021 02:30:00 7.3 C 6.72 g/m*3 5.47 C 9.7 km/h
32 13-03-2021 02:35:00 7.3 C 6.72 g/m*3 5.47 C 9.7 km/h
33 13-03-2021 02:40:00 7.3 C 6.72 g/m*3 4.9 C 12.9 km/h
34 13-03-2021 02:45:00 7.3 C 6.64 g/m*3 5.16 C 11.3 km/h
35 13-03-2021 02:50:00 7.3 C 6.64 g/m*3 4.23 C 17.7 km/h
36 13-03-2021 02:55:00 7.3 C 6.64 g/m*3 5.16 C 11.3 km/h
37 13-03-2021 03:00:00 7.3 C 6.64 g/m*3 5.16 C 11.3 km/h
38 13-03-2021 03:05:00 7.3 C 6.64 g/m*3 5.16 C 11.3 km/h
39 13-03-2021 03:10:00 7.2 C 6.59 g/m*3 6.13 C 6.4 km/h
40 13-03-2021 03:15:00 7.2 C 6.59 g/m*3 5.69 C 8.1 km/h
41 13-03-2021 03:20:00 7.1 C 6.55 g/m*3 6.02 C 6.4 km/h
42 13-03-2021 03:25:00 7.1 C 6.63 g/m*3 6.02 C 6.4 km/h
43 13-03-2021 03:30:00 7.1 C 6.63 g/m*3 4.92 C 11.3 km/h
44 13-03-2021 03:35:00 7.2 C 6.67 g/m*3 5.35 C 9.7 km/h
45 13-03-2021 03:40:00 7.2 C 6.67 g/m*3 6.13 C 6.4 km/h
46 13-03-2021 03:45:00 7.2 C 6.67 g/m*3 4.31 C 16.1 km/h
47 13-03-2021 03:50:00 7.2 C 6.67 g/m*3 5.35 C 9.7 km/h
48 13-03-2021 03:55:00 7.2 C 6.75 g/m*3 5.69 C 8.1 km/h
49 13-03-2021 04:00:00 7.2 C 6.75 g/m*3 7.2 C 1.6 km/h
50 13-03-2021 04:05:00 7.2 C 6.75 g/m*3 6.13 C 6.4 km/h
Sensor: Nr:Datum:Temp:Abs-Feuchte:Windchill:Wind:
Aussen-T/F 51 13-03-2021 04:10:00 7.1 C 6.79 g/m*3 4.92 C 11.3 km/h
52 13-03-2021 04:15:00 7.1 C 6.71 g/m*3 3.45 C 22.5 km/h
53 13-03-2021 04:20:00 7.1 C 6.71 g/m*3 4.92 C 11.3 km/h
54 13-03-2021 04:25:00 7.1 C 6.71 g/m*3 4.92 C 11.3 km/h
55 13-03-2021 04:30:00 7.1 C 6.71 g/m*3 7.1 C 4.8 km/h
56 13-03-2021 04:35:00 7.1 C 6.71 g/m*3 5.23 C 9.7 km/h
57 13-03-2021 04:40:00 7.2 C 6.67 g/m*3 7.2 C 4.8 km/h
58 13-03-2021 04:45:00 7.2 C 6.67 g/m*3 6.13 C 6.4 km/h
59 13-03-2021 04:50:00 7.2 C 6.75 g/m*3 5.69 C 8.1 km/h
60 13-03-2021 04:55:00 7.2 C 6.75 g/m*3 3.43 C 24.1 km/h
61 13-03-2021 05:00:00 7.3 C 6.79 g/m*3 5.81 C 8.1 km/h
62 13-03-2021 05:05:00 7.3 C 6.79 g/m*3 5.16 C 11.3 km/h
63 13-03-2021 05:10:00 7.4 C 6.76 g/m*3 5.28 C 11.3 km/h
64 13-03-2021 05:15:00 7.4 C 6.76 g/m*3 5.58 C 9.7 km/h
65 13-03-2021 05:20:00 7.6 C 6.85 g/m*3 5.53 C 11.3 km/h
66 13-03-2021 05:25:00 7.6 C 6.85 g/m*3 5.82 C 9.7 km/h
67 13-03-2021 05:30:00 7.7 C 6.89 g/m*3 5.15 C 14.5 km/h
68 13-03-2021 05:35:00 7.8 C 6.94 g/m*3 5.77 C 11.3 km/h
69 13-03-2021 05:40:00 7.8 C 6.94 g/m*3 6.4 C 8.1 km/h
70 13-03-2021 05:45:00 7.9 C 6.98 g/m*3 4.8 C 19.3 km/h
71 13-03-2021 05:50:00 8 C 6.94 g/m*3 5.3 C 16.1 km/h
72 13-03-2021 05:55:00 8.1 C 6.99 g/m*3 5.43 C 16.1 km/h
73 13-03-2021 06:00:00 8.1 C 6.99 g/m*3 5.87 C 12.9 km/h
74 13-03-2021 06:05:00 8.1 C 7.07 g/m*3 5.05 C 19.3 km/h
75 13-03-2021 06:10:00 8.1 C 7.07 g/m*3 6.13 C 11.3 km/h
Sensor: Nr:Datum:Temp:Abs-Feuchte:Windchill:Wind:
Aussen-T/F 76 13-03-2021 06:15:00 8.1 C 7.07 g/m*3 6.42 C 9.7 km/h
77 13-03-2021 06:20:00 8.1 C 7.07 g/m*3 6.42 C 9.7 km/h
78 13-03-2021 06:25:00 8.1 C 6.99 g/m*3 4.58 C 24.1 km/h
79 13-03-2021 06:30:00 8.3 C 7 g/m*3 5.31 C 19.3 km/h
80 13-03-2021 06:35:00 8.3 C 7 g/m*3 5.89 C 14.5 km/h
81 13-03-2021 06:40:00 8.4 C 7.04 g/m*3 6.49 C 11.3 km/h
82 13-03-2021 06:45:00 8.4 C 6.96 g/m*3 7.11 C 8.1 km/h
83 13-03-2021 06:50:00 8.4 C 6.96 g/m*3 6.24 C 12.9 km/h
84 13-03-2021 06:55:00 8.4 C 6.96 g/m*3 6.49 C 11.3 km/h
85 13-03-2021 07:00:00 8.6 C 7.13 g/m*3 6.05 C 16.1 km/h
86 13-03-2021 07:05:00 8.5 C 7.09 g/m*3 6.13 C 14.5 km/h
87 13-03-2021 07:10:00 8.4 C 7.13 g/m*3 5.8 C 16.1 km/h
88 13-03-2021 07:15:00 8.3 C 7.08 g/m*3 5.48 C 17.7 km/h
89 13-03-2021 07:20:00 8.4 C 7.04 g/m*3 5.11 C 22.5 km/h
90 13-03-2021 07:25:00 8.5 C 7 g/m*3 5.92 C 16.1 km/h
91 13-03-2021 07:30:00 8.7 C 7.01 g/m*3 5.49 C 22.5 km/h
92 13-03-2021 07:35:00 8.8 C 6.96 g/m*3 5.62 C 22.5 km/h
93 13-03-2021 07:40:00 8.9 C 6.92 g/m*3 5.75 C 22.5 km/h
94 13-03-2021 07:45:00 9 C 6.96 g/m*3 6.19 C 19.3 km/h
95 13-03-2021 07:50:00 9 C 7.05 g/m*3 5.34 C 29 km/h
96 13-03-2021 07:55:00 8.9 C 7.1 g/m*3 6.42 C 16.1 km/h
97 13-03-2021 08:00:00 8.8 C 7.14 g/m*3 6.3 C 16.1 km/h
98 13-03-2021 08:05:00 8.6 C 7.13 g/m*3 4.7 C 30.6 km/h
99 13-03-2021 08:10:00 8.5 C 7.17 g/m*3 4.57 C 30.6 km/h
100 13-03-2021 08:15:00 8.4 C 7.21 g/m*3 5.43 C 19.3 km/h
Sensor: Nr:Datum:Temp:Abs-Feuchte:Windchill:Wind:
Aussen-T/F 101 13-03-2021 08:20:00 8.3 C 7.16 g/m*3 5.31 C 19.3 km/h
102 13-03-2021 08:25:00 8.3 C 7.25 g/m*3 5.31 C 19.3 km/h
103 13-03-2021 08:30:00 8.2 C 7.2 g/m*3 5.55 C 16.1 km/h
104 13-03-2021 08:35:00 8.2 C 7.29 g/m*3 5.36 C 17.7 km/h
105 13-03-2021 08:40:00 8.1 C 7.24 g/m*3 5.05 C 19.3 km/h
106 13-03-2021 08:45:00 8.1 C 7.24 g/m*3 5.43 C 16.1 km/h
107 13-03-2021 08:50:00 8.2 C 7.29 g/m*3 6.25 C 11.3 km/h
108 13-03-2021 08:55:00 8.2 C 7.37 g/m*3 5.18 C 19.3 km/h
109 13-03-2021 09:00:00 8.3 C 7.42 g/m*3 5.68 C 16.1 km/h
110 13-03-2021 09:05:00 8.3 C 7.33 g/m*3 4.7 C 25.7 km/h
111 13-03-2021 09:10:00 8.4 C 7.38 g/m*3 4.69 C 27.4 km/h
112 13-03-2021 09:15:00 8.4 C 7.38 g/m*3 5.43 C 19.3 km/h
113 13-03-2021 09:20:00 8.4 C 7.38 g/m*3 5.11 C 22.5 km/h
114 13-03-2021 09:25:00 8.4 C 7.3 g/m*3 4.44 C 30.6 km/h
115 13-03-2021 09:30:00 8.5 C 7.43 g/m*3 5.73 C 17.7 km/h
116 13-03-2021 09:35:00 8.5 C 7.43 g/m*3 5.92 C 16.1 km/h
117 13-03-2021 09:40:00 8.6 C 7.56 g/m*3 6.73 C 11.3 km/h
118 13-03-2021 09:45:00 8.6 C 7.56 g/m*3 6.05 C 16.1 km/h
119 13-03-2021 09:50:00 8.7 C 7.52 g/m*3 5.35 C 24.1 km/h
120 13-03-2021 09:55:00 8.7 C 7.52 g/m*3 5.65 C 20.9 km/h
121 13-03-2021 10:00:00 8.7 C 7.52 g/m*3 5.35 C 24.1 km/h
122 13-03-2021 10:05:00 8.7 C 7.52 g/m*3 5.49 C 22.5 km/h
123 13-03-2021 10:10:00 8.7 C 7.52 g/m*3 5.65 C 20.9 km/h
124 13-03-2021 10:15:00 8.6 C 7.56 g/m*3 5.22 C 24.1 km/h
125 13-03-2021 10:20:00 8.5 C 7.51 g/m*3 5.24 C 22.5 km/h
Sensor: Nr:Datum:Temp:Abs-Feuchte:Windchill:Wind:
Aussen-T/F 126 13-03-2021 10:25:00 8.3 C 7.5 g/m*3 5.14 C 20.9 km/h
127 13-03-2021 10:30:00 8.1 C 7.41 g/m*3 4.44 C 25.7 km/h
128 13-03-2021 10:35:00 7.9 C 7.31 g/m*3 4.04 C 27.4 km/h
129 13-03-2021 10:40:00 7.8 C 7.26 g/m*3 4.05 C 25.7 km/h
130 13-03-2021 10:45:00 7.6 C 7.17 g/m*3 4.81 C 16.1 km/h
131 13-03-2021 10:50:00 7.3 C 6.95 g/m*3 3.01 C 30.6 km/h
132 13-03-2021 10:55:00 7 C 6.66 g/m*3 2.49 C 32.2 km/h
133 13-03-2021 11:00:00 6.7 C 6.61 g/m*3 2.35 C 29 km/h
134 13-03-2021 11:05:00 6.4 C 6.56 g/m*3 3.32 C 16.1 km/h
135 13-03-2021 11:10:00 6.4 C 6.56 g/m*3 2.91 C 19.3 km/h
136 13-03-2021 11:15:00 6.3 C 6.51 g/m*3 3.2 C 16.1 km/h
137 13-03-2021 11:20:00 6.3 C 6.51 g/m*3 2.79 C 19.3 km/h
138 13-03-2021 11:25:00 6.3 C 6.59 g/m*3 2.98 C 17.7 km/h
139 13-03-2021 11:30:00 6.3 C 6.59 g/m*3 3.96 C 11.3 km/h
140 13-03-2021 11:35:00 6.4 C 6.71 g/m*3 4.08 C 11.3 km/h
141 13-03-2021 11:40:00 6.4 C 6.63 g/m*3 3.11 C 17.7 km/h
142 13-03-2021 11:45:00 6.4 C 6.63 g/m*3 4.08 C 11.3 km/h
143 13-03-2021 11:50:00 6.4 C 6.56 g/m*3 3.32 C 16.1 km/h
144 13-03-2021 11:55:00 6.4 C 6.48 g/m*3 2.25 C 25.7 km/h
145 13-03-2021 12:00:00 6.5 C 6.45 g/m*3 3.04 C 19.3 km/h
146 13-03-2021 12:05:00 6.5 C 6.45 g/m*3 3.23 C 17.7 km/h
147 13-03-2021 12:10:00 6.4 C 6.41 g/m*3 3.32 C 16.1 km/h
148 13-03-2021 12:15:00 6.5 C 6.45 g/m*3 3.67 C 14.5 km/h
149 13-03-2021 12:20:00 6.6 C 6.57 g/m*3 4.04 C 12.9 km/h
150 13-03-2021 12:25:00 6.6 C 6.49 g/m*3 3.79 C 14.5 km/h
Sensor: Nr:Datum:Temp:Abs-Feuchte:Windchill:Wind:
Aussen-T/F 151 13-03-2021 12:30:00 6.8 C 6.65 g/m*3 4.04 C 14.5 km/h
152 13-03-2021 12:35:00 7 C 6.66 g/m*3 4.06 C 16.1 km/h
153 13-03-2021 12:40:00 7.3 C 6.79 g/m*3 4.05 C 19.3 km/h
154 13-03-2021 12:45:00 7.6 C 7.01 g/m*3 4.42 C 19.3 km/h
155 13-03-2021 12:50:00 7.9 C 6.98 g/m*3 4.47 C 22.5 km/h
156 13-03-2021 12:55:00 8.1 C 6.99 g/m*3 4.89 C 20.9 km/h
157 13-03-2021 13:00:00 8.2 C 6.95 g/m*3 5.01 C 20.9 km/h
158 13-03-2021 13:05:00 8.2 C 6.87 g/m*3 5.36 C 17.7 km/h
159 13-03-2021 13:10:00 8.1 C 6.91 g/m*3 5.05 C 19.3 km/h
160 13-03-2021 13:15:00 8.1 C 6.91 g/m*3 5.05 C 19.3 km/h
161 13-03-2021 13:20:00 8.2 C 6.95 g/m*3 4.86 C 22.5 km/h
162 13-03-2021 13:25:00 8.4 C 6.96 g/m*3 6.01 C 14.5 km/h
163 13-03-2021 13:30:00 8.7 C 7.01 g/m*3 6.85 C 11.3 km/h
164 13-03-2021 13:35:00 8.8 C 7.05 g/m*3 6.11 C 17.7 km/h
165 13-03-2021 13:40:00 8.9 C 7.1 g/m*3 7.09 C 11.3 km/h
166 13-03-2021 13:45:00 8.9 C 7.01 g/m*3 5.9 C 20.9 km/h
167 13-03-2021 13:50:00 8.7 C 6.83 g/m*3 5.65 C 20.9 km/h
168 13-03-2021 13:55:00 8.6 C 6.87 g/m*3 6.05 C 16.1 km/h
169 13-03-2021 14:00:00 8.6 C 7.05 g/m*3 5.86 C 17.7 km/h
170 13-03-2021 14:05:00 8.7 C 7.09 g/m*3 6.17 C 16.1 km/h
171 13-03-2021 14:10:00 9.1 C 7.1 g/m*3 6.31 C 19.3 km/h
172 13-03-2021 14:15:00 9.3 C 7.01 g/m*3 5.98 C 25.7 km/h
173 13-03-2021 14:20:00 9.4 C 6.96 g/m*3 6.38 C 22.5 km/h
174 13-03-2021 14:25:00 9.7 C 7.1 g/m*3 6.91 C 20.9 km/h
175 13-03-2021 14:30:00 9.7 C 7.01 g/m*3 7.07 C 19.3 km/h
Sensor: Nr:Datum:Temp:Abs-Feuchte:Windchill:Wind:
Aussen-T/F 176 13-03-2021 14:35:00 9.7 C 7.01 g/m*3 6.77 C 22.5 km/h
177 13-03-2021 14:40:00 9.3 C 7.1 g/m*3 6.41 C 20.9 km/h
178 13-03-2021 14:45:00 9.1 C 7.1 g/m*3 6.31 C 19.3 km/h
179 13-03-2021 14:50:00 9.1 C 7.1 g/m*3 6.48 C 17.7 km/h
180 13-03-2021 14:55:00 9.2 C 6.97 g/m*3 6.28 C 20.9 km/h
181 13-03-2021 15:00:00 9.3 C 6.92 g/m*3 6.92 C 16.1 km/h
182 13-03-2021 15:05:00 9.3 C 6.83 g/m*3 6.73 C 17.7 km/h
183 13-03-2021 15:10:00 9.4 C 6.78 g/m*3 7.24 C 14.5 km/h
184 13-03-2021 15:15:00 9.7 C 6.91 g/m*3 7.23 C 17.7 km/h
185 13-03-2021 15:20:00 10.1 C 6.9 g/m*3 7.91 C 16.1 km/h
186 13-03-2021 15:25:00 10.3 C 6.8 g/m*3 8.34 C 14.5 km/h
187 13-03-2021 15:30:00 10.4 C 6.75 g/m*3 8.28 C 16.1 km/h
188 13-03-2021 15:35:00 10.5 C 6.6 g/m*3 7.53 C 25.7 km/h
189 13-03-2021 15:40:00 10.3 C 6.61 g/m*3 7.15 C 27.4 km/h
190 13-03-2021 15:45:00 9.9 C 6.35 g/m*3 6.2 C 33.8 km/h
191 13-03-2021 15:50:00 9.3 C 6.02 g/m*3 5.41 C 33.8 km/h
192 13-03-2021 15:55:00 8.8 C 6.27 g/m*3 5.34 C 25.7 km/h
193 13-03-2021 16:00:00 8.5 C 6.49 g/m*3 5.56 C 19.3 km/h
194 13-03-2021 16:05:00 8.3 C 6.49 g/m*3 6.99 C 8.1 km/h
195 13-03-2021 16:10:00 8.2 C 6.36 g/m*3 3.75 C 37 km/h
196 13-03-2021 16:15:00 7.9 C 6.24 g/m*3 3.79 C 30.6 km/h
197 13-03-2021 16:20:00 7.2 C 6.36 g/m*3 2.87 C 30.6 km/h
198 13-03-2021 16:25:00 6.7 C 6.31 g/m*3 2.22 C 30.6 km/h
199 13-03-2021 16:30:00 6.7 C 6.38 g/m*3 2.22 C 30.6 km/h
200 13-03-2021 16:35:00 7.1 C 6.47 g/m*3 3.8 C 19.3 km/h
Sensor: Nr:Datum:Temp:Abs-Feuchte:Windchill:Wind:
Aussen-T/F 201 13-03-2021 16:40:00 7.6 C 6.44 g/m*3 4.25 C 20.9 km/h
202 13-03-2021 16:45:00 8.1 C 6.41 g/m*3 5.05 C 19.3 km/h
203 13-03-2021 16:50:00 8.5 C 6.4 g/m*3 5.56 C 19.3 km/h
204 13-03-2021 16:55:00 8.9 C 6.48 g/m*3 6.85 C 12.9 km/h
205 13-03-2021 17:00:00 9.2 C 6.43 g/m*3 6.28 C 20.9 km/h
206 13-03-2021 17:05:00 9.3 C 6.38 g/m*3 6.12 C 24.1 km/h
207 13-03-2021 17:10:00 9.3 C 6.38 g/m*3 6.41 C 20.9 km/h
208 13-03-2021 17:15:00 9.2 C 6.43 g/m*3 6.61 C 17.7 km/h
209 13-03-2021 17:20:00 9.2 C 6.43 g/m*3 6.28 C 20.9 km/h
210 13-03-2021 17:25:00 8.9 C 6.31 g/m*3 5.75 C 22.5 km/h
211 13-03-2021 17:30:00 8.5 C 6.32 g/m*3 6.13 C 14.5 km/h
212 13-03-2021 17:35:00 8.3 C 6.32 g/m*3 5.48 C 17.7 km/h
213 13-03-2021 17:40:00 8.1 C 6.32 g/m*3 6.42 C 9.7 km/h
214 13-03-2021 17:45:00 8.1 C 6.32 g/m*3 5.64 C 14.5 km/h
215 13-03-2021 17:50:00 8 C 6.2 g/m*3 6.01 C 11.3 km/h
216 13-03-2021 17:55:00 8 C 6.2 g/m*3 4.76 C 20.9 km/h
217 13-03-2021 18:00:00 8.1 C 6.16 g/m*3 4.3 C 27.4 km/h
218 13-03-2021 18:05:00 7.6 C 6.36 g/m*3 3.94 C 24.1 km/h
219 13-03-2021 18:10:00 6.8 C 6.27 g/m*3 3.42 C 19.3 km/h
220 13-03-2021 18:15:00 6.2 C 6.18 g/m*3 2.86 C 17.7 km/h
221 13-03-2021 18:20:00 5.8 C 6.16 g/m*3 4.05 C 8.1 km/h
222 13-03-2021 18:25:00 5.4 C 6.07 g/m*3 2.32 C 14.5 km/h
223 13-03-2021 18:30:00 5.2 C 6.06 g/m*3 2.63 C 11.3 km/h
224 13-03-2021 18:35:00 4.9 C 5.94 g/m*3 2.99 C 8.1 km/h
225 13-03-2021 18:40:00 4.8 C 5.97 g/m*3 4.8 C 4.8 km/h
Sensor: Nr:Datum:Temp:Abs-Feuchte:Windchill:Wind:
Aussen-T/F 226 13-03-2021 18:45:00 4.6 C 5.89 g/m*3 4.6 C 4.8 km/h
227 13-03-2021 18:50:00 4.5 C 5.92 g/m*3 4.5 C 4.8 km/h
228 13-03-2021 18:55:00 4.4 C 5.88 g/m*3 4.4 C 4.8 km/h
229 13-03-2021 19:00:00 4.4 C 5.88 g/m*3 4.4 C 4.8 km/h
230 13-03-2021 19:05:00 4.5 C 5.98 g/m*3 1.21 C 14.5 km/h
231 13-03-2021 19:10:00 4.7 C 6.06 g/m*3 1.73 C 12.9 km/h
232 13-03-2021 19:15:00 5 C 6.12 g/m*3 1.83 C 14.5 km/h
233 13-03-2021 19:20:00 5.3 C 6.1 g/m*3 1.96 C 16.1 km/h
234 13-03-2021 19:25:00 5.7 C 6.05 g/m*3 1.67 C 22.5 km/h
235 13-03-2021 19:30:00 5.9 C 6.13 g/m*3 2.7 C 16.1 km/h
236 13-03-2021 19:35:00 5.9 C 5.98 g/m*3 3.19 C 12.9 km/h
237 13-03-2021 19:40:00 5.9 C 5.84 g/m*3 2.29 C 19.3 km/h
238 13-03-2021 19:45:00 6.1 C 5.84 g/m*3 2.35 C 20.9 km/h
239 13-03-2021 19:50:00 6.1 C 5.84 g/m*3 2.73 C 17.7 km/h
240 13-03-2021 19:55:00 6 C 5.81 g/m*3 2.41 C 19.3 km/h
241 13-03-2021 20:00:00 5.9 C 5.77 g/m*3 2.1 C 20.9 km/h
242 13-03-2021 20:05:00 5.8 C 5.73 g/m*3 2.58 C 16.1 km/h
243 13-03-2021 20:10:00 5.9 C 5.84 g/m*3 3.19 C 12.9 km/h
244 13-03-2021 20:15:00 5.8 C 5.8 g/m*3 3.07 C 12.9 km/h
245 13-03-2021 20:20:00 5.8 C 5.8 g/m*3 3.36 C 11.3 km/h
246 13-03-2021 20:25:00 5.8 C 5.8 g/m*3 3.36 C 11.3 km/h
247 13-03-2021 20:30:00 5.9 C 5.77 g/m*3 2.93 C 14.5 km/h
248 13-03-2021 20:35:00 5.9 C 5.77 g/m*3 3.48 C 11.3 km/h
249 13-03-2021 20:40:00 5.9 C 5.77 g/m*3 3.48 C 11.3 km/h
250 13-03-2021 20:45:00 5.9 C 5.77 g/m*3 2.93 C 14.5 km/h
Sensor: Nr:Datum:Temp:Abs-Feuchte:Windchill:Wind:
Aussen-T/F 251 13-03-2021 20:50:00 6 C 5.88 g/m*3 2.82 C 16.1 km/h
252 13-03-2021 20:55:00 5.9 C 5.84 g/m*3 3.8 C 9.7 km/h
253 13-03-2021 21:00:00 5.9 C 5.77 g/m*3 3.19 C 12.9 km/h
254 13-03-2021 21:05:00 5.9 C 5.84 g/m*3 3.19 C 12.9 km/h
255 13-03-2021 21:10:00 5.8 C 5.8 g/m*3 3.68 C 9.7 km/h
256 13-03-2021 21:15:00 5.8 C 5.8 g/m*3 1.97 C 20.9 km/h
257 13-03-2021 21:20:00 5.8 C 5.8 g/m*3 4.05 C 8.1 km/h
258 13-03-2021 21:25:00 5.8 C 5.8 g/m*3 3.68 C 9.7 km/h
259 13-03-2021 21:30:00 5.7 C 5.76 g/m*3 3.93 C 8.1 km/h
260 13-03-2021 21:35:00 5.6 C 5.73 g/m*3 2.83 C 12.9 km/h
261 13-03-2021 21:40:00 5.6 C 5.73 g/m*3 3.44 C 9.7 km/h
262 13-03-2021 21:45:00 5.4 C 5.72 g/m*3 4.06 C 6.4 km/h
263 13-03-2021 21:50:00 5.3 C 5.68 g/m*3 3.46 C 8.1 km/h
264 13-03-2021 21:55:00 5.2 C 5.71 g/m*3 3.34 C 8.1 km/h
265 13-03-2021 22:00:00 5.1 C 5.68 g/m*3 3.71 C 6.4 km/h
266 13-03-2021 22:05:00 5.1 C 5.68 g/m*3 1.95 C 14.5 km/h
267 13-03-2021 22:10:00 5.1 C 5.68 g/m*3 2.22 C 12.9 km/h
268 13-03-2021 22:15:00 5.2 C 5.71 g/m*3 3.34 C 8.1 km/h
269 13-03-2021 22:20:00 5.1 C 5.68 g/m*3 2.84 C 9.7 km/h
270 13-03-2021 22:25:00 5.1 C 5.68 g/m*3 2.51 C 11.3 km/h
271 13-03-2021 22:30:00 5.1 C 5.68 g/m*3 2.84 C 9.7 km/h
272 13-03-2021 22:35:00 5.1 C 5.68 g/m*3 2.84 C 9.7 km/h
273 13-03-2021 22:40:00 5 C 5.64 g/m*3 3.11 C 8.1 km/h
274 13-03-2021 22:45:00 4.9 C 5.6 g/m*3 2.27 C 11.3 km/h
275 13-03-2021 22:50:00 4.9 C 5.6 g/m*3 2.27 C 11.3 km/h
Sensor: Nr:Datum:Temp:Abs-Feuchte:Windchill:Wind:
Aussen-T/F 276 13-03-2021 22:55:00 4.9 C 5.67 g/m*3 1.97 C 12.9 km/h
277 13-03-2021 23:00:00 4.9 C 5.67 g/m*3 2.61 C 9.7 km/h
278 13-03-2021 23:05:00 4.9 C 5.67 g/m*3 1.46 C 16.1 km/h
279 13-03-2021 23:10:00 4.9 C 5.6 g/m*3 2.99 C 8.1 km/h
280 13-03-2021 23:15:00 5 C 5.64 g/m*3 2.09 C 12.9 km/h
281 13-03-2021 23:20:00 5.1 C 5.68 g/m*3 1.95 C 14.5 km/h
282 13-03-2021 23:25:00 5.1 C 5.68 g/m*3 2.51 C 11.3 km/h
283 13-03-2021 23:30:00 5.1 C 5.68 g/m*3 3.71 C 6.4 km/h
284 13-03-2021 23:35:00 5.2 C 5.78 g/m*3 3.82 C 6.4 km/h
285 13-03-2021 23:40:00 5.2 C 5.78 g/m*3 3.82 C 6.4 km/h
286 13-03-2021 23:45:00 5.2 C 5.78 g/m*3 5.2 C 3.2 km/h
287 13-03-2021 23:50:00 5.1 C 5.75 g/m*3 5.1 C 0 km/h
288 13-03-2021 23:55:00 5.1 C 5.75 g/m*3 5.1 C 3.2 km/h

Legende:
   Min
   Max


Maximal/Minimal-Werte vom 13.03.2021 - 13.03.2021

Sensor Min Max Avg
Temp
(Aussen-T/F)
4.4 °C
13-03-2021  18:55:00
10.5 °C
13-03-2021  15:35:00
7.29 °C
Abs-Feuchte
(Aussen-T/F)
5.6 g/m*3
13-03-2021  22:45:00
7.56 g/m*3
13-03-2021  09:40:00
6.54 g/m*3
Windchill
(Aussen-T/F)
1.21 C
13-03-2021  19:05:00
8.34 C
13-03-2021  15:25:00
4.64 C

Die Daten stammen von einer Davis Vantage Pro 2 Wetter-Station und werden unter Linux mit der Software wview2wettercgi und aufbereitet. Alle Angaben erfolgen ohne Gewähr für ihre Vollständigkeit oder Richtigkeit.
Kontakt: Rainer Krienke krienke@uni-koblenz.de . Meine Webseiten an der Uni Koblenz oder privat.
Version: $Revision: 0.78 $